Latest Weather Observations for Trepell

IDQ60801

Issued at 6:06 pm EST Tuesday 27 January 2015 (issued every 30 minutes, with the page automatically refreshed every 10 minutes)

About weather observations | Map of weather stations | Latest weather observations for QLD | Other Formats
Station Details ID: 037036 Name: TREPELL AIRPORT Lat: -21.84 Lon: 140.89 Height: 266.2 m
Data from the previous 72 hours. | See also: Recent months at Trepell
Date/Time
EST
Temp
°C
App
Temp
°C
Dew
Point
Rel
Hum
%
Delta-T
°C
Wind Press
QNH
hPa
Press
MSL
hPa
Rain
since 9 am
mm
Dir
 
Spd
km/h
Gust
km/h
Spd
kts
Gust
kts
27/06:00pm 34.4 26.5 -1.6 10 17.5 S 30 41 16 22 1004.5 1002.3 0.0
27/05:30pm 35.0 27.5 -1.1 10 17.8 SSW 28 41 15 22 1004.2 1002.0 0.0
27/05:00pm 35.0 27.2 -1.1 10 17.8 SSW 30 43 16 23 1004.2 1002.0 0.0
27/04:30pm 35.1 28.0 -1.1 10 17.8 SSW 26 43 14 23 1004.3 1002.1 0.0
27/04:00pm 35.6 28.0 0.6 11 17.8 SW 30 44 16 24 1004.7 1002.5 0.0
27/03:51pm 35.0 27.7 0.2 11 17.5 SSW 28 46 15 25 1004.6 1002.4 0.0
27/03:30pm 35.7 28.5 0.7 11 17.8 SSW 28 41 15 22 1004.8 1002.7 0.0
27/03:00pm 35.7 28.5 0.7 11 17.8 SW 28 37 15 20 1005.3 1003.2 0.0
27/02:30pm 35.4 28.6 0.5 11 17.7 SSW 26 35 14 19 1005.5 1003.4 0.0
27/02:00pm 35.9 28.5 2.1 12 17.6 SW 30 43 16 23 1005.8 1003.7 0.0
27/01:30pm 35.0 28.3 1.4 12 17.2 SSW 26 39 14 21 1006.1 1004.0 0.0
27/01:00pm 34.7 28.3 1.1 12 17.1 SSW 24 37 13 20 1006.6 1004.5 0.0
27/12:30pm 34.6 28.4 2.2 13 16.8 SSW 24 32 13 17 1006.8 1004.7 0.0
27/12:00pm 33.9 27.6 1.6 13 16.5 SSW 24 35 13 19 1007.0 1004.9 0.0
27/11:30am 34.0 28.3 2.8 14 16.3 SSW 22 30 12 16 1007.4 1005.3 0.0
27/11:00am 32.2 26.6 1.3 14 15.5 S 20 32 11 17 1007.8 1005.7 0.0
27/10:30am 31.6 26.1 1.8 15 15.0 SSW 20 32 11 17 1008.3 1006.2 0.0
27/10:00am 30.3 25.0 1.7 16 14.3 S 19 30 10 16 1008.4 1006.3 0.0
27/09:30am 28.9 23.7 2.2 18 13.3 S 19 24 10 13 1008.5 1006.4 0.0
27/09:00am 27.8 21.6 2.1 19 12.7 S 24 32 13 17 1008.6 1006.5 0.0
27/08:30am 27.2 21.0 2.3 20 12.3 SSW 24 32 13 17 1008.5 1006.4 0.0
27/08:00am 25.8 20.5 1.8 21 11.7 SSW 19 24 10 13 1008.1 1005.9 0.0
27/07:30am 24.6 19.3 2.1 23 10.9 SSW 19 24 10 13 1007.7 1005.6 0.0
27/07:00am 23.2 18.4 2.7 26 9.9 SW 17 20 9 11 1007.4 1005.3 0.0
27/06:30am 22.4 17.5 2.0 26 9.7 SW 17 20 9 11 1007.4 1005.3 0.0
27/06:00am 22.4 17.5 2.0 26 9.7 SW 17 20 9 11 1007.1 1005.0 0.0
27/05:30am 22.5 18.4 2.1 26 9.7 SW 13 17 7 9 1006.8 1004.7 0.0
27/05:00am 22.8 19.0 1.8 25 10.0 SW 11 15 6 8 1006.7 1004.6 0.0
27/04:30am 23.4 19.2 1.7 24 10.3 SW 13 17 7 9 1006.4 1004.3 0.0
27/04:00am 24.0 19.4 1.6 23 10.7 SW 15 17 8 9 1006.3 1004.2 0.0
27/03:30am 24.2 19.9 1.2 22 10.9 SW 13 17 7 9 1006.2 1004.1 0.0
27/03:00am 24.8 20.1 1.0 21 11.3 SW 15 19 8 10 1006.2 1004.1 0.0
27/02:30am 24.7 20.3 0.3 20 11.4 SW 13 17 7 9 1006.2 1004.1 0.0
27/02:00am 25.3 20.8 0.0 19 11.9 SW 13 17 7 9 1006.5 1004.4 0.0
27/01:30am 26.2 21.3 -0.8 17 12.5 SW 15 19 8 10 1006.8 1004.7 0.0
27/01:00am 26.6 22.0 -1.3 16 12.9 SW 13 17 7 9 1007.0 1004.9 0.0
27/12:30am 26.7 21.7 -1.2 16 12.9 SW 15 17 8 9 1007.4 1005.3 0.0
27/12:00am 27.3 22.2 -1.6 15 13.4 SW 15 19 8 10 1007.7 1005.6 0.0
 
Date/Time
EST
Temp
°C
App
Temp
°C
Dew
Point
Rel
Hum
%
Delta-T
°C
Wind Press
QNH
hPa
Press
MSL
hPa
Rain
since 9 am
mm
Dir
 
Spd
km/h
Gust
km/h
Spd
kts
Gust
kts
26/11:30pm 27.8 22.3 -2.1 14 13.7 SW 17 20 9 11 1008.2 1006.1 0.0
26/11:00pm 28.2 23.1 -1.8 14 13.9 SW 15 19 8 10 1008.3 1006.2 0.0
26/10:30pm 28.3 23.5 -2.7 13 14.1 SW 13 15 7 8 1008.3 1006.2 0.0
26/10:00pm 29.2 24.5 -2.0 13 14.5 SW 13 17 7 9 1007.9 1005.8 0.0
26/09:30pm 30.0 25.4 -1.4 13 14.8 SW 13 17 7 9 1007.8 1005.7 0.0
26/09:00pm 30.5 25.8 -2.1 12 15.3 SW 13 15 7 8 1007.5 1005.4 0.0
26/08:30pm 31.4 26.8 -1.4 12 15.7 SW 13 17 7 9 1007.3 1005.2 0.0
26/08:00pm 33.0 27.2 -1.4 11 16.6 SSW 19 22 10 12 1006.7 1004.6 0.0
26/07:30pm 34.0 27.2 -1.9 10 17.3 SSW 24 32 13 17 1006.2 1004.1 0.0
26/07:00pm 35.0 27.7 0.2 11 17.5 SW 28 35 15 19 1005.9 1003.8 0.0
26/06:30pm 35.5 27.5 0.6 11 17.7 SW 32 41 17 22 1005.7 1003.6 0.0
26/06:00pm 36.1 29.1 2.2 12 17.7 SW 28 39 15 21 1005.3 1003.2 0.0
26/05:30pm 36.3 29.8 2.4 12 17.7 SSW 26 37 14 20 1005.3 1003.2 0.0
26/05:00pm 36.4 30.4 3.6 13 17.5 SSW 24 39 13 21 1005.4 1003.3 0.0
26/04:30pm 37.7 32.5 5.6 14 17.8 SSW 22 30 12 16 1005.4 1003.3 0.0
26/04:00pm 37.5 32.5 4.4 13 18.0 SSW 20 33 11 18 1005.7 1003.6 0.0
26/03:30pm 37.2 31.2 3.1 12 18.1 SW 24 43 13 23 1005.9 1003.8 0.0
26/03:00pm 37.2 31.9 3.1 12 18.2 SSW 20 35 11 19 1006.2 1004.1 0.0
26/02:30pm 37.5 32.3 3.3 12 18.3 SSW 20 28 11 15 1006.7 1004.6 0.0
26/02:00pm 37.6 32.6 4.5 13 18.1 SSW 20 32 11 17 1007.1 1005.0 0.0
26/01:30pm 37.2 31.7 4.2 13 17.8 SW 22 32 12 17 1007.5 1005.4 0.0
26/01:00pm 36.7 31.0 2.7 12 17.9 SSW 22 32 12 17 1007.7 1005.6 0.0
26/12:30pm 35.9 31.0 2.1 12 17.6 SSW 17 26 9 14 1008.1 1005.9 0.0
26/12:00pm 36.0 30.5 2.1 12 17.7 SSW 20 28 11 15 1008.4 1006.3 0.0
26/11:30am 35.0 30.0 4.5 15 16.4 SSW 20 30 11 16 1008.7 1006.6 0.0
26/11:00am 34.4 29.7 5.0 16 15.9 S 19 26 10 14 1009.2 1007.1 0.0
26/10:30am 33.1 28.5 5.6 18 14.9 S 19 28 10 15 1009.5 1007.4 0.0
26/10:00am 32.7 28.6 6.1 19 14.5 S 17 24 9 13 1009.6 1007.5 0.0
26/09:30am 31.6 27.1 5.9 20 13.9 S 19 24 10 13 1009.7 1007.6 0.0
26/09:00am 30.5 26.3 5.7 21 13.3 S 17 24 9 13 1009.7 1007.6 0.0
26/08:30am 30.4 26.3 6.3 22 13.0 SSW 17 20 9 11 1009.9 1007.8 0.0
26/08:00am 28.9 25.2 6.3 24 12.1 SW 15 20 8 11 1010.0 1007.9 0.0
26/07:30am 27.4 23.7 6.2 26 11.2 SW 15 17 8 9 1009.9 1007.8 0.0
26/07:00am 26.8 24.1 7.3 29 10.5 SW 11 13 6 7 1009.6 1007.5 0.0
26/06:30am 26.2 23.8 6.8 29 10.3 SW 9 11 5 6 1009.1 1007.0 0.0
26/06:00am 26.5 24.6 7.5 30 10.3 SSW 7 9 4 5 1008.6 1006.5 0.0
26/05:30am 26.8 25.8 7.3 29 10.5 NE 2 6 1 3 1008.4 1006.3 0.0
26/05:00am 27.2 25.1 6.6 27 11.0 SW 7 9 4 5 1008.1 1005.9 0.0
26/04:30am 27.7 24.8 6.5 26 11.3 SSW 11 15 6 8 1007.5 1005.4 0.0
26/04:00am 27.6 24.3 6.4 26 11.3 SW 13 17 7 9 1007.3 1005.2 0.0
26/03:30am 28.1 24.4 6.2 25 11.6 SSW 15 17 8 9 1007.2 1005.1 0.0
26/03:00am 28.1 24.9 6.8 26 11.5 SW 13 15 7 8 1007.2 1005.1 0.0
26/02:30am 28.1 25.8 7.4 27 11.2 W 9 11 5 6 1007.2 1005.1 0.0
26/02:00am 28.3 25.5 7.0 26 11.5 SW 11 13 6 7 1007.1 1005.0 0.0
26/01:30am 29.3 26.3 6.0 23 12.4 SSW 11 15 6 8 1007.3 1005.2 0.0
26/01:00am 30.6 27.3 6.5 22 13.1 S 13 17 7 9 1007.8 1005.7 0.0
26/12:30am 30.7 29.4 11.1 30 11.4 SSW 9 15 5 8 1008.2 1006.1 0.0
26/12:00am 31.6 30.6 13.4 33 11.1 S 11 20 6 11 1008.3 1006.2 0.0
 
Date/Time
EST
Temp
°C
App
Temp
°C
Dew
Point
Rel
Hum
%
Delta-T
°C
Wind Press
QNH
hPa
Press
MSL
hPa
Rain
since 9 am
mm
Dir
 
Spd
km/h
Gust
km/h
Spd
kts
Gust
kts
25/11:30pm 30.3 32.4 16.3 42 8.8 CALM 0 0 0 0 1008.4 1006.3 0.0
25/11:00pm 30.5 31.4 16.1 41 9.1 NE 6 7 3 4 1008.6 1006.5 0.0
25/10:30pm 31.1 31.5 16.3 41 9.4 E 9 13 5 7 1008.5 1006.4 0.0
25/10:00pm 31.4 32.3 16.6 41 9.4 NNE 7 11 4 6 1007.8 1005.7 0.0
25/09:30pm 31.9 32.3 16.2 38 9.9 NE 9 11 5 6 1007.1 1005.0 0.0
25/09:00pm 32.7 33.4 15.7 36 10.7 N 6 13 3 7 1006.8 1004.7 0.0
25/08:30pm 33.0 32.0 15.5 35 11.0 N 15 22 8 12 1006.4 1004.3 0.0
25/08:00pm 33.0 31.2 15.5 35 11.0 N 19 22 10 12 1005.7 1003.6 0.0
25/07:30pm 33.9 32.6 16.7 35 11.0 NNE 19 22 10 12 1005.1 1003.0 0.0
25/07:00pm 34.7 33.1 16.5 33 11.7 NNE 20 28 11 15 1004.6 1002.4 0.0
25/06:30pm 34.6 31.8 16.4 33 11.7 NNE 26 32 14 17 1004.2 1002.0 0.0
25/06:00pm 35.8 32.5 17.0 32 12.2 NNE 30 41 16 22 1003.9 1001.8 0.0
25/05:59pm 35.9 32.4 16.6 31 12.4 NNE 30 39 16 21 1003.9 1001.8 0.0
25/05:30pm 37.8 37.2 16.7 29 13.7 ENE 15 28 8 15 1003.3 1001.2 0.0
25/05:00pm 41.0 35.4 7.1 13 19.5 SSW 26 35 14 19 1003.5 1001.4 0.0
25/04:30pm 40.5 36.7 9.8 16 18.3 S 20 39 11 21 1003.8 1001.7 0.0
25/04:00pm 41.3 36.0 8.5 14 19.3 SSW 26 39 14 21 1004.0 1001.9 0.0
25/03:30pm 41.6 37.5 8.7 14 19.4 SW 20 37 11 20 1004.5 1002.3 0.0
25/03:00pm 40.9 37.6 11.0 17 18.2 S 19 33 10 18 1004.9 1002.8 0.0
25/02:30pm 40.5 36.8 11.6 18 17.7 S 22 33 12 18 1005.4 1003.3 0.0
25/02:00pm 40.3 38.5 12.2 19 17.4 S 13 22 7 12 1005.5 1003.4 0.0
25/01:30pm 39.4 38.6 13.0 21 16.4 ESE 9 19 5 10 1005.9 1003.8 0.0
25/01:00pm 38.8 38.3 13.9 22 15.7 SSE 9 17 5 9 1006.5 1004.4 0.0
25/12:30pm 38.4 38.9 14.9 25 14.9 WSW 6 11 3 6 1006.7 1004.6 0.0
25/12:00pm 38.0 37.2 15.2 26 14.5 SW 13 22 7 12 1007.2 1005.1 0.0
25/11:30am 37.3 38.1 16.3 29 13.5 S 7 17 4 9 1007.5 1005.4 0.0
25/11:00am 36.2 35.7 15.9 30 13.0 SSW 13 19 7 10 1008.1 1005.9 0.0
25/10:30am 35.9 36.8 17.6 34 12.0 WSW 9 19 5 10 1008.3 1006.2 0.0
25/10:00am 35.0 35.6 18.6 38 10.9 WNW 13 20 7 11 1008.5 1006.4 0.0
25/09:30am 33.7 34.0 19.7 43 9.4 NW 17 24 9 13 1008.5 1006.4 0.0
25/09:00am 32.6 32.3 19.5 46 8.7 NW 20 26 11 14 1008.5 1006.4 0.0
25/08:30am 32.1 32.6 20.0 48 8.1 NNW 17 26 9 14 1008.6 1006.5 0.0
25/08:00am 30.9 31.6 20.5 54 7.0 NNW 17 20 9 11 1008.6 1006.5 0.0
25/07:30am 29.9 32.0 21.0 59 6.0 NNW 11 15 6 8 1008.7 1006.6 0.0
25/07:00am 29.3 32.2 21.0 61 5.6 NNW 7 9 4 5 1008.5 1006.4 0.0
25/06:30am 28.9 31.2 20.6 61 5.5 NW 9 13 5 7 1007.9 1005.8 0.0
25/06:00am 28.9 30.7 20.4 60 5.7 NW 11 17 6 9 1007.3 1005.2 0.0
25/05:30am 29.2 30.6 20.4 59 5.9 NNW 13 17 7 9 1006.9 1004.8 0.0
25/05:00am 29.3 30.4 20.5 59 5.9 NNW 15 19 8 10 1006.4 1004.3 0.0
25/04:30am 29.4 30.8 20.3 58 6.1 N 13 19 7 10 1006.0 1003.9 0.0
25/04:00am 29.8 30.7 20.1 56 6.5 NNW 15 20 8 11 1005.8 1003.7 0.0
25/03:30am 30.1 31.3 19.8 54 6.8 NNW 13 19 7 10 1005.7 1003.6 0.0
25/03:00am 30.5 30.3 19.8 52 7.1 NNW 20 24 11 13 1005.5 1003.4 0.0
25/02:30am 30.7 30.2 20.0 52 7.1 NNW 22 32 12 17 1005.6 1003.5 0.0
25/02:00am 29.4 30.4 19.4 55 6.6 NNE 13 15 7 8 1005.8 1003.7 0.0
25/01:30am 30.2 30.9 18.9 50 7.4 N 13 19 7 10 1006.0 1003.9 0.0
25/01:00am 30.3 30.2 18.7 50 7.6 NNE 17 20 9 11 1006.2 1004.1 0.0
25/12:30am 31.2 32.1 18.5 46 8.3 N 11 17 6 9 1006.3 1004.2 0.0
25/12:00am 30.8 31.1 17.8 45 8.4 NNE 13 13 7 7 1006.2 1004.1 0.0
 
Date/Time
EST
Temp
°C
App
Temp
°C
Dew
Point
Rel
Hum
%
Delta-T
°C
Wind Press
QNH
hPa
Press
MSL
hPa
Rain
since 9 am
mm
Dir
 
Spd
km/h
Gust
km/h
Spd
kts
Gust
kts
24/11:30pm 32.3 32.7 18.1 42 9.2 N 13 15 7 8 1006.4 1004.3 0.0
24/11:00pm 32.5 32.9 17.2 40 9.9 NNW 11 13 6 7 1006.5 1004.4 0.0
24/10:30pm 32.8 32.4 16.2 37 10.5 NNW 13 15 7 8 1006.4 1004.3 0.0
24/10:00pm 32.2 33.0 17.3 41 9.6 N 9 11 5 6 1006.2 1004.1 0.0
24/09:30pm 32.3 32.8 17.4 41 9.6 N 11 17 6 9 1005.9 1003.8 0.0
24/09:00pm 32.6 32.2 17.2 39 9.9 NNE 15 19 8 10 1006.0 1003.9 0.0
24/08:30pm 33.3 32.1 17.0 37 10.5 NNE 19 24 10 13 1005.3 1003.2 0.0
24/08:00pm 34.0 33.6 17.2 36 10.9 N 15 20 8 11 1004.6 1002.4 0.0
24/07:30pm 34.5 33.2 17.3 36 11.2 N 20 30 11 16 1004.2 1002.0 0.0
24/07:00pm 35.8 34.2 16.5 31 12.5 NNW 20 28 11 15 1003.7 1001.6 0.0
24/06:30pm 35.9 33.6 16.6 31 12.4 N 24 32 13 17 1003.3 1001.2 0.0

Other Formats:

Comma delimited format used in spreadsheet applications
http://www.bom.gov.au/fwo/IDQ60801/IDQ60801.94338.axf

JavaScript Object Notation format (JSON) in row-major order
http://www.bom.gov.au/fwo/IDQ60801/IDQ60801.94338.json